»·PEaware :: N160RA KVCV-KSNA

N160RA :: KVCV-KSNA

FLIGHT INFORMATION

Flight Status: Arrived
Operator: Privately registered:
United States
More flights under this callsign
Pilot: Cody B. (17747)
Aircraft: CESSNA 172 SKYHAWK
(C172)
More flights by this aircraft type
Origin: KVCV Socal Logistics
United States
Destination: KSNA John Wayne-Orange Co
United States
More flights between these airports :: More routes between these airports
Route: +APLES V442 PDZ V8 SLI
File this flight plan on PilotEdge
Remarks:
Altitude:
(Current/Filed)
6,000ft
Speed:
(Current/Filed)
110kts
Departed: 14-Feb-20 09:42 AM
Arrived: 14-Feb-20 10:35 AM
Distance/Time
Traveled:
60nm/0:53
Distance/Time
To Go:
Arrived

Flight Plot

Page will automatically refresh every two minutes.


Map Options




Map Legend


Flown Route
Filed Route
Departure Airport
Arrival Airport
Navaid (VOR, NDB)
Fix

Horizontal Profiles

Position Reports

Time Latitude Longitude Heading Altitude Ground
Speed
14-Feb-20 09:04 34.588333 -117.376341 313 2871ft 0kts
14-Feb-20 09:05 34.588333 -117.376341 313 2871ft 0kts
14-Feb-20 09:06 34.588333 -117.376341 313 2871ft 0kts
14-Feb-20 09:07 34.588333 -117.376341 313 2871ft 0kts
14-Feb-20 09:08 34.588333 -117.376341 313 2871ft 0kts
14-Feb-20 09:09 34.588333 -117.376341 313 2871ft 0kts
14-Feb-20 09:10 34.588333 -117.376341 313 2871ft 0kts
14-Feb-20 09:10 34.588333 -117.376341 313 2871ft 0kts
14-Feb-20 09:11 34.588333 -117.376341 313 2871ft 0kts
14-Feb-20 09:13 34.588333 -117.376341 313 2871ft 0kts
14-Feb-20 09:13 34.588333 -117.376341 313 2871ft 0kts
14-Feb-20 09:14 34.588333 -117.376341 313 2871ft 0kts
14-Feb-20 09:16 34.588333 -117.376341 313 2871ft 0kts
14-Feb-20 09:16 34.588333 -117.376341 313 2871ft 0kts
14-Feb-20 09:17 34.588333 -117.376341 313 2871ft 0kts
14-Feb-20 09:18 34.588333 -117.376341 313 2871ft 0kts
14-Feb-20 09:19 34.588333 -117.376341 313 2871ft 0kts
14-Feb-20 09:20 34.588333 -117.376341 313 2871ft 0kts
14-Feb-20 09:21 34.588333 -117.376341 313 2871ft 0kts
14-Feb-20 09:22 34.588333 -117.376341 313 2871ft 0kts
14-Feb-20 09:23 34.588333 -117.376341 313 2871ft 0kts
14-Feb-20 09:24 34.588333 -117.376341 313 2871ft 0kts
14-Feb-20 09:25 34.588333 -117.376341 313 2871ft 0kts
14-Feb-20 09:26 34.588333 -117.376341 313 2871ft 0kts
14-Feb-20 09:27 34.588333 -117.376341 313 2871ft 0kts
14-Feb-20 09:28 34.588333 -117.376341 313 2871ft 0kts
14-Feb-20 09:29 34.588333 -117.376341 313 2871ft 0kts
14-Feb-20 09:30 34.588333 -117.376341 313 2871ft 0kts
14-Feb-20 09:31 34.588333 -117.376341 313 2871ft 0kts
14-Feb-20 09:32 34.588333 -117.376341 313 2871ft 0kts
14-Feb-20 09:33 34.588333 -117.376341 313 2871ft 0kts
14-Feb-20 09:34 34.588410 -117.376441 315 2871ft 0kts
14-Feb-20 09:35 34.588456 -117.376495 319 2871ft 0kts
14-Feb-20 09:36 34.590336 -117.375820 45 2867ft 16kts
14-Feb-20 09:37 34.593258 -117.371654 89 2858ft 15kts
14-Feb-20 09:38 34.594480 -117.367715 11 2853ft 17kts
14-Feb-20 09:39 34.599153 -117.366582 13 2843ft 3kts
14-Feb-20 09:40 34.599403 -117.366513 11 2843ft 5kts
14-Feb-20 09:41 34.595030 -117.373500 231 2991ft 68kts
14-Feb-20 09:42 34.589890 -117.397603 253 3652ft 76kts
14-Feb-20 09:43 34.585614 -117.423105 260 4315ft 78kts
14-Feb-20 09:44 34.581884 -117.450530 259 4886ft 89kts
14-Feb-20 09:45 34.577960 -117.482344 260 5401ft 100kts
14-Feb-20 09:46 34.574065 -117.514533 259 6054ft 90kts
14-Feb-20 09:47 34.567906 -117.539575 197 6703ft 70kts
14-Feb-20 09:48 34.564848 -117.522151 49 7068ft 91kts
14-Feb-20 09:49 34.581942 -117.498365 55 7579ft 88kts
14-Feb-20 09:50 34.595882 -117.476559 55 8143ft 75kts
14-Feb-20 09:51 34.607894 -117.458552 60 8585ft 65kts
14-Feb-20 09:52 34.621385 -117.436648 55 8752ft 97kts
14-Feb-20 09:53 34.617056 -117.406521 118 9060ft 99kts
14-Feb-20 09:54 34.599163 -117.383334 139 9503ft 88kts
14-Feb-20 09:55 34.581546 -117.364063 140 9912ft 83kts
14-Feb-20 09:56 34.561891 -117.342678 140 9985ft 108kts
14-Feb-20 09:57 34.538668 -117.317419 139 9983ft 113kts
14-Feb-20 09:58 34.515016 -117.291683 139 9982ft 114kts
14-Feb-20 09:59 34.491246 -117.265828 139 9982ft 115kts
14-Feb-20 10:00 34.466645 -117.241008 143 9982ft 114kts
14-Feb-20 10:01 34.440325 -117.221686 190 9982ft 112kts
14-Feb-20 10:02 34.410960 -117.234973 204 9982ft 112kts
14-Feb-20 10:03 34.383752 -117.253793 209 9982ft 113kts
14-Feb-20 10:04 34.355143 -117.269161 203 9982ft 112kts
14-Feb-20 10:05 34.326642 -117.285127 206 9982ft 113kts
14-Feb-20 10:06 34.298362 -117.301719 205 9983ft 112kts
14-Feb-20 10:07 34.270165 -117.318537 206 9982ft 112kts
14-Feb-20 10:08 34.242047 -117.335420 206 9982ft 112kts
14-Feb-20 10:09 34.213818 -117.352366 206 9982ft 113kts
14-Feb-20 10:10 34.185661 -117.369260 206 9982ft 113kts
14-Feb-20 10:11 34.157437 -117.386196 206 9982ft 113kts
14-Feb-20 10:12 34.129231 -117.403106 206 9982ft 113kts
14-Feb-20 10:13 34.100992 -117.420023 206 9982ft 113kts
14-Feb-20 10:14 34.072524 -117.437085 206 9804ft 118kts
14-Feb-20 10:15 34.042002 -117.455390 205 9305ft 125kts
14-Feb-20 10:16 34.010759 -117.474232 205 8818ft 124kts
14-Feb-20 10:17 33.980595 -117.492365 204 8514ft 118kts
14-Feb-20 10:18 33.951198 -117.509951 204 8256ft 115kts
14-Feb-20 10:19 33.923018 -117.527782 223 8047ft 115kts
14-Feb-20 10:20 33.909276 -117.564465 249 7586ft 122kts
14-Feb-20 10:21 33.899046 -117.603413 250 7082ft 122kts
14-Feb-20 10:22 33.885252 -117.640158 241 6457ft 118kts
14-Feb-20 10:23 33.870605 -117.675193 240 5754ft 113kts
14-Feb-20 10:24 33.856669 -117.707999 240 5050ft 108kts
14-Feb-20 10:25 33.842649 -117.740163 240 4345ft 106kts
14-Feb-20 10:26 33.822324 -117.763950 202 3638ft 104kts
14-Feb-20 10:27 33.800747 -117.781575 219 3074ft 85kts
14-Feb-20 10:28 33.782828 -117.799427 216 2411ft 76kts
14-Feb-20 10:29 33.764509 -117.813634 207 1960ft 76kts
14-Feb-20 10:30 33.745486 -117.824769 205 1559ft 75kts
14-Feb-20 10:31 33.726176 -117.836738 209 1043ft 77kts
14-Feb-20 10:32 33.708523 -117.847987 208 695ft 68kts
14-Feb-20 10:33 33.691483 -117.858867 206 355ft 69kts
14-Feb-20 10:34 33.676073 -117.868605 212 60ft 29kts
14-Feb-20 10:35 33.673841 -117.867441 119 60ft 6kts
14-Feb-20 10:36 33.671972 -117.866972 200 60ft 8kts

Navigation Log

Ident Type
Flight plan parsing failed, navigation log unavailable